Time;durP1;ratioP1;P1;durP2;ratioP2;P2;SDS_P1;SDS_P2;PMS_P1;PMS_P2;Temp;Humidity;BMP_temperature;BMP_pressure;BME280_temperature;BME280_humidity;BME280_pressure;Samples;Min_cycle;Max_cycle;Signal;HPM_P1;HPM_P2
2022/11/07 00:01:40;;;;;;;13.57;10.02;;;8.50;99.90;;;;;;5029942;28;20045;-67
2022/11/07 00:04:08;;;;;;;13.90;8.93;;;8.50;99.90;;;;;;5030094;28;20088;-66
2022/11/07 00:06:36;;;;;;;13.98;10.02;;;8.50;99.90;;;;;;5029015;28;20042;-65
2022/11/07 00:09:04;;;;;;;13.23;8.93;;;8.60;99.90;;;;;;5028266;28;20037;-67
2022/11/07 00:11:32;;;;;;;14.40;10.35;;;8.70;99.90;;;;;;5027539;28;20464;-68
2022/11/07 00:13:59;;;;;;;12.70;9.65;;;8.70;99.90;;;;;;5041513;28;20041;-66
2022/11/07 00:16:28;;;;;;;12.35;9.38;;;8.80;99.90;;;;;;5019087;28;20049;-66
2022/11/07 00:18:55;;;;;;;14.00;9.60;;;8.70;99.90;;;;;;5029024;28;20447;-66
2022/11/07 00:21:23;;;;;;;12.00;8.70;;;8.60;99.90;;;;;;5032172;28;20038;-66
2022/11/07 00:23:51;;;;;;;13.77;9.27;;;8.60;99.90;;;;;;5033581;28;20041;-67
2022/11/07 00:26:18;;;;;;;14.20;9.65;;;8.50;99.90;;;;;;5032484;28;20042;-66
2022/11/07 00:28:45;;;;;;;13.90;9.15;;;8.50;99.90;;;;;;5031335;28;20045;-67
2022/11/07 00:31:14;;;;;;;14.32;9.27;;;8.60;99.90;;;;;;5033759;28;20119;-67
2022/11/07 00:33:42;;;;;;;13.75;8.60;;;8.60;99.90;;;;;;5027362;28;20063;-66
2022/11/07 00:36:20;;;;;;;11.95;8.07;;;8.60;99.90;;;;;;5017471;28;20069;-66
2022/11/07 00:38:47;;;;;;;12.27;8.60;;;8.70;99.90;;;;;;5024794;28;20061;-67
2022/11/07 00:41:15;;;;;;;11.68;8.23;;;8.60;99.90;;;;;;5028126;28;20045;-67
2022/11/07 00:43:43;;;;;;;11.48;8.32;;;8.70;99.90;;;;;;5028621;28;20053;-67
2022/11/07 00:46:12;;;;;;;11.75;8.23;;;8.60;99.90;;;;;;5023889;28;20046;-67
2022/11/07 00:48:40;;;;;;;11.57;8.30;;;8.70;99.90;;;;;;5027731;28;20068;-66
2022/11/07 00:51:13;;;;;;;11.48;8.43;;;8.70;99.90;;;;;;5028594;28;20454;-67
2022/11/07 00:53:41;;;;;;;10.18;7.10;;;8.60;99.90;;;;;;5033277;28;20128;-67
2022/11/07 00:56:11;;;;;;;10.65;6.88;;;8.70;99.90;;;;;;5030590;28;20093;-67
2022/11/07 00:58:40;;;;;;;11.27;7.07;;;8.70;99.90;;;;;;5030827;28;20460;-67
2022/11/07 01:01:14;;;;;;;10.02;6.88;;;8.70;99.90;;;;;;5030731;28;20051;-66
2022/11/07 01:06:30;;;;;;;10.75;6.95;;;8.80;99.90;;;;;;5032939;28;20048;-67
2022/11/07 01:08:58;;;;;;;10.20;7.20;;;8.80;99.90;;;;;;5026055;28;20045;-67
2022/11/07 01:11:27;;;;;;;10.15;6.95;;;8.80;99.90;;;;;;5032684;28;20535;-67
2022/11/07 01:13:56;;;;;;;10.18;6.53;;;8.90;99.90;;;;;;5027438;28;20059;-67
2022/11/07 01:16:23;;;;;;;10.25;7.20;;;8.90;99.90;;;;;;5031262;28;20484;-67
2022/11/07 01:18:51;;;;;;;8.07;5.80;;;8.90;99.90;;;;;;5031609;28;20045;-67
2022/11/07 01:21:19;;;;;;;8.52;5.72;;;8.90;99.90;;;;;;5031545;28;20052;-67
2022/11/07 01:23:47;;;;;;;8.88;5.97;;;8.90;99.90;;;;;;5032499;28;20041;-67
2022/11/07 01:26:14;;;;;;;9.32;5.90;;;8.90;99.90;;;;;;5027371;28;20037;-67
2022/11/07 01:28:42;;;;;;;9.15;5.95;;;8.90;99.90;;;;;;5024253;28;20468;-67
2022/11/07 01:31:11;;;;;;;8.43;5.90;;;8.90;99.90;;;;;;5023007;28;20054;-67
2022/11/07 01:33:39;;;;;;;9.48;5.78;;;8.90;99.90;;;;;;5023181;28;20574;-67
2022/11/07 01:36:10;;;;;;;9.48;5.93;;;8.80;99.90;;;;;;5026500;28;20119;-68
2022/11/07 01:38:39;;;;;;;9.55;5.97;;;8.80;99.90;;;;;;5028052;28;20061;-67
2022/11/07 01:41:21;;;;;;;11.20;6.97;;;8.80;99.90;;;;;;5026080;28;20105;-67
2022/11/07 01:43:51;;;;;;;;;;;8.80;99.90;;;;;;5024360;28;20049;-67
2022/11/07 01:46:19;;;;;;;8.98;5.95;;;8.80;99.90;;;;;;5031088;28;19920;-67
2022/11/07 01:48:57;;;;;;;9.68;6.10;;;8.80;99.90;;;;;;5018929;28;20086;-67
2022/11/07 01:51:25;;;;;;;8.48;5.72;;;8.80;99.90;;;;;;5036917;28;20044;-68
2022/11/07 01:53:54;;;;;;;9.40;6.47;;;8.80;99.90;;;;;;5025189;28;20068;-67
2022/11/07 01:56:25;;;;;;;9.20;6.32;;;8.80;99.90;;;;;;5019676;28;20091;-67
2022/11/07 01:58:54;;;;;;;8.87;5.80;;;8.80;99.90;;;;;;5025718;28;20041;-67
2022/11/07 02:01:22;;;;;;;8.65;6.00;;;8.80;99.90;;;;;;5027124;28;20041;-67
2022/11/07 02:03:50;;;;;;;10.32;6.53;;;8.80;99.90;;;;;;5031364;28;20095;-67
2022/11/07 02:06:43;;;;;;;10.82;7.20;;;8.80;99.90;;;;;;5032114;28;20567;-67
2022/11/07 02:09:11;;;;;;;9.23;6.50;;;8.80;99.90;;;;;;5030546;28;20065;-67
2022/11/07 02:11:39;;;;;;;8.98;5.97;;;8.80;99.90;;;;;;5029888;28;20660;-67
2022/11/07 02:14:07;;;;;;;9.32;6.20;;;8.80;99.90;;;;;;5030731;28;20392;-67
2022/11/07 02:16:36;;;;;;;9.35;6.00;;;8.80;99.90;;;;;;5031940;28;20097;-66
2022/11/07 02:19:09;;;;;;;8.75;5.90;;;8.90;99.90;;;;;;5030482;28;20041;-66
2022/11/07 02:22:09;;;;;;;9.35;6.40;;;8.90;99.90;;;;;;5030774;28;20048;-67
2022/11/07 02:24:38;;;;;;;8.18;5.63;;;8.80;99.90;;;;;;5033995;28;20370;-67
2022/11/07 02:27:11;;;;;;;8.60;5.60;;;8.80;99.90;;;;;;5024295;28;20480;-67
2022/11/07 02:29:42;;;;;;;8.85;5.55;;;8.80;99.90;;;;;;5030613;28;20049;-67
2022/11/07 02:32:11;;;;;;;8.15;5.20;;;8.90;99.90;;;;;;5019189;28;20061;-67
2022/11/07 02:34:38;;;;;;;7.75;4.93;;;8.90;99.90;;;;;;5027908;28;20466;-67
2022/11/07 02:37:21;;;;;;;7.03;4.82;;;8.90;99.90;;;;;;5028676;28;20045;-67
2022/11/07 02:39:49;;;;;;;9.00;5.15;;;8.90;99.90;;;;;;5029184;28;20049;-67
2022/11/07 02:42:17;;;;;;;9.35;5.57;;;8.90;99.90;;;;;;5029285;28;20045;-67
2022/11/07 02:44:45;;;;;;;6.75;4.90;;;8.90;99.90;;;;;;5030421;28;20151;-67
2022/11/07 02:47:13;;;;;;;9.00;5.00;;;8.90;99.90;;;;;;5028933;28;20586;-67
2022/11/07 02:49:40;;;;;;;8.77;4.75;;;8.90;99.90;;;;;;5030957;28;20411;-68
2022/11/07 02:52:07;;;;;;;6.47;4.30;;;8.90;99.90;;;;;;5041840;28;20041;-67
2022/11/07 02:54:35;;;;;;;6.88;4.45;;;8.90;99.90;;;;;;5022632;28;20056;-67
2022/11/07 02:57:02;;;;;;;7.97;4.45;;;9.00;99.90;;;;;;5028353;28;20041;-67
2022/11/07 02:59:29;;;;;;;9.27;4.78;;;9.00;99.90;;;;;;5027414;28;20045;-67
2022/11/07 03:01:57;;;;;;;6.93;3.92;;;9.00;99.90;;;;;;5027517;28;20373;-66
2022/11/07 03:04:24;;;;;;;5.93;3.47;;;9.00;99.90;;;;;;5021239;28;20043;-67
2022/11/07 03:06:52;;;;;;;6.82;3.50;;;9.00;99.90;;;;;;5019266;28;20122;-67
2022/11/07 03:09:19;;;;;;;6.43;4.20;;;9.10;99.90;;;;;;5029866;28;20045;-67
2022/11/07 03:11:46;;;;;;;6.75;4.18;;;9.10;99.90;;;;;;5031074;28;20464;-67
2022/11/07 03:14:14;;;;;;;5.75;3.83;;;9.10;99.90;;;;;;5027532;28;20411;-67
2022/11/07 03:16:41;;;;;;;6.40;3.67;;;9.10;99.90;;;;;;5016093;28;20045;-67
2022/11/07 03:19:08;;;;;;;7.68;4.00;;;9.10;99.90;;;;;;5027949;28;20044;-68
2022/11/07 03:21:35;;;;;;;6.72;3.67;;;9.10;99.90;;;;;;5026181;28;20532;-67
2022/11/07 03:24:03;;;;;;;5.28;3.50;;;9.20;99.90;;;;;;5017692;28;20141;-67
2022/11/07 03:26:30;;;;;;;4.93;3.35;;;9.20;99.90;;;;;;5015833;28;20049;-67
2022/11/07 03:28:58;;;;;;;5.25;3.55;;;9.20;99.90;;;;;;5027217;28;20037;-67
2022/11/07 03:31:25;;;;;;;5.53;3.50;;;9.30;99.90;;;;;;5023757;28;20492;-67
2022/11/07 03:33:52;;;;;;;6.22;3.90;;;9.20;99.90;;;;;;5017643;28;20512;-67
2022/11/07 03:36:20;;;;;;;8.52;3.90;;;9.30;99.90;;;;;;5027078;28;20045;-67
2022/11/07 03:38:47;;;;;;;6.10;3.85;;;9.30;99.90;;;;;;5024952;28;20091;-67
2022/11/07 03:41:16;;;;;;;7.75;3.72;;;9.30;99.90;;;;;;5028540;28;20169;-69
2022/11/07 03:43:44;;;;;;;6.93;4.07;;;9.30;99.90;;;;;;5018863;28;20071;-67
2022/11/07 03:46:12;;;;;;;7.35;3.88;;;9.30;99.90;;;;;;5029330;28;20048;-67
2022/11/07 03:48:41;;;;;;;6.38;3.75;;;9.40;99.90;;;;;;5028714;28;20560;-67
2022/11/07 03:51:09;;;;;;;6.97;4.32;;;9.40;99.90;;;;;;5024807;28;20507;-67
2022/11/07 03:53:36;;;;;;;7.60;4.35;;;9.40;99.90;;;;;;5028956;28;20153;-68
2022/11/07 03:56:08;;;;;;;7.78;4.65;;;9.40;99.90;;;;;;5027668;28;20077;-68
2022/11/07 03:58:36;;;;;;;6.72;4.68;;;9.40;99.90;;;;;;5023737;28;20609;-68
2022/11/07 04:01:04;;;;;;;6.07;3.97;;;9.40;99.90;;;;;;5026693;28;20140;-67
2022/11/07 04:03:32;;;;;;;7.55;5.25;;;9.40;99.90;;;;;;5022114;28;20058;-66
2022/11/07 04:05:59;;;;;;;7.25;4.40;;;9.40;99.90;;;;;;5024884;28;20358;-67
2022/11/07 04:08:26;;;;;;;6.40;4.47;;;9.40;99.90;;;;;;5019520;28;20117;-67
2022/11/07 04:10:54;;;;;;;6.90;4.50;;;9.40;99.90;;;;;;5021792;28;20049;-69
2022/11/07 04:18:57;;;;;;;7.97;4.53;;;9.40;99.90;;;;;;5026355;28;20045;-67
2022/11/07 04:21:24;;;;;;;6.20;4.20;;;9.40;99.90;;;;;;5028196;28;20826;-66
2022/11/07 04:23:52;;;;;;;6.68;4.28;;;9.40;99.90;;;;;;5028708;28;20073;-67
2022/11/07 04:29:05;;;;;;;7.20;4.32;;;9.40;99.90;;;;;;5041403;28;20061;-68
2022/11/07 04:31:32;;;;;;;7.00;4.18;;;9.40;99.90;;;;;;5027715;28;20045;-67
2022/11/07 04:33:59;;;;;;;5.45;4.00;;;9.40;99.90;;;;;;5013000;28;20515;-67
2022/11/07 04:36:26;;;;;;;5.53;3.75;;;9.50;99.90;;;;;;5027857;28;20507;-66
2022/11/07 04:38:54;;;;;;;7.57;4.75;;;9.40;99.90;;;;;;5027344;28;20137;-69
2022/11/07 04:41:23;;;;;;;9.15;4.90;;;9.50;99.90;;;;;;5024040;28;20488;-67
2022/11/07 04:43:50;;;;;;;5.32;3.90;;;9.50;99.90;;;;;;5027816;28;20053;-66
2022/11/07 04:46:18;;;;;;;6.53;3.60;;;9.40;99.90;;;;;;5029405;28;20037;-67
2022/11/07 04:48:45;;;;;;;7.25;3.30;;;9.30;99.90;;;;;;5029975;28;20045;-68
2022/11/07 04:51:19;;;;;;;5.97;3.58;;;9.20;99.90;;;;;;5028480;28;20033;-66
2022/11/07 04:53:46;;;;;;;6.45;3.50;;;9.10;99.90;;;;;;5019072;28;20065;-68
2022/11/07 04:56:13;;;;;;;5.75;3.10;;;9.00;99.90;;;;;;5019451;28;20164;-67
2022/11/07 04:58:41;;;;;;;5.03;3.38;;;8.90;99.90;;;;;;5021602;28;20054;-67
2022/11/07 05:01:08;;;;;;;5.63;3.70;;;8.90;99.90;;;;;;5019306;28;20122;-67
2022/11/07 05:03:35;;;;;;;7.68;4.00;;;8.80;99.90;;;;;;5025490;28;20047;-67
2022/11/07 05:06:13;;;;;;;6.68;3.35;;;8.80;99.90;;;;;;5031737;28;20046;-67
2022/11/07 05:08:40;;;;;;;6.45;3.55;;;8.90;99.90;;;;;;5018040;28;20079;-67
2022/11/07 05:11:07;;;;;;;5.45;3.47;;;8.90;99.90;;;;;;5031936;28;20041;-67
2022/11/07 05:13:35;;;;;;;5.90;3.35;;;8.90;99.90;;;;;;5031909;28;20073;-67
2022/11/07 05:16:02;;;;;;;6.25;3.80;;;8.90;99.90;;;;;;5027330;28;20108;-67
2022/11/07 05:18:29;;;;;;;5.70;3.75;;;8.90;99.90;;;;;;5025921;28;20069;-66
2022/11/07 05:20:57;;;;;;;7.75;4.03;;;9.00;99.90;;;;;;5014912;28;20542;-66
2022/11/07 05:23:26;;;;;;;7.75;4.40;;;9.00;99.90;;;;;;5029794;28;20045;-68
2022/11/07 05:25:54;;;;;;;9.93;4.00;;;9.10;99.90;;;;;;5022744;28;20037;-66
2022/11/07 05:28:23;;;;;;;7.22;4.63;;;9.10;99.90;;;;;;5031529;28;20048;-66
2022/11/07 05:31:03;;;;;;;16.67;4.80;;;9.10;99.90;;;;;;5028021;28;20037;-67
2022/11/07 05:33:30;;;;;;;7.70;4.47;;;9.10;99.90;;;;;;5032001;28;20500;-66
2022/11/07 05:36:11;;;;;;;6.20;3.80;;;9.10;99.90;;;;;;5027051;28;20096;-66
2022/11/07 05:38:43;;;;;;;7.22;4.18;;;9.10;99.90;;;;;;5017700;28;20068;-66
2022/11/07 05:41:12;;;;;;;7.32;4.85;;;9.10;99.90;;;;;;5025930;28;20081;-68
2022/11/07 05:43:39;;;;;;;8.52;4.65;;;9.10;99.90;;;;;;5028943;28;20514;-67
2022/11/07 05:46:07;;;;;;;6.90;4.25;;;9.10;99.90;;;;;;5021347;28;20416;-68
2022/11/07 05:48:35;;;;;;;6.57;4.20;;;9.20;99.90;;;;;;5010937;28;20046;-68
2022/11/07 05:51:04;;;;;;;9.35;4.10;;;9.10;99.90;;;;;;5003955;28;20132;-67
2022/11/07 05:53:32;;;;;;;7.15;4.25;;;9.10;99.90;;;;;;5029203;28;20530;-66
2022/11/07 05:56:00;;;;;;;8.02;4.25;;;9.00;99.90;;;;;;5029516;28;20061;-68
2022/11/07 05:58:27;;;;;;;8.35;4.10;;;9.00;99.90;;;;;;4998702;28;20045;-66
2022/11/07 06:01:00;;;;;;;9.27;4.53;;;8.90;99.90;;;;;;5026659;28;20568;-68
2022/11/07 06:03:27;;;;;;;7.20;4.40;;;9.00;99.90;;;;;;5024505;28;20578;-67
2022/11/07 06:05:54;;;;;;;6.60;3.95;;;8.90;99.90;;;;;;5026172;28;20405;-69
2022/11/07 06:08:22;;;;;;;7.03;4.25;;;8.90;99.90;;;;;;5024778;28;20060;-67
2022/11/07 06:10:49;;;;;;;7.25;4.43;;;8.80;99.90;;;;;;5026967;28;20041;-67
2022/11/07 06:13:17;;;;;;;6.60;4.40;;;8.80;99.90;;;;;;5023950;28;20052;-67
2022/11/07 06:15:45;;;;;;;7.03;4.80;;;8.80;99.90;;;;;;5027873;28;20098;-66
2022/11/07 06:18:18;;;;;;;6.78;4.53;;;8.70;99.90;;;;;;5037112;28;20527;-67
2022/11/07 06:20:46;;;;;;;7.25;4.70;;;8.70;99.90;;;;;;5020477;28;20076;-67
2022/11/07 06:23:14;;;;;;;9.52;5.25;;;8.70;99.90;;;;;;5018139;28;20065;-67
2022/11/07 06:25:42;;;;;;;9.15;4.70;;;8.70;99.90;;;;;;5025668;28;20829;-67
2022/11/07 06:28:11;;;;;;;9.70;4.30;;;8.70;99.90;;;;;;5038450;28;20046;-67
2022/11/07 06:30:39;;;;;;;9.48;4.88;;;8.70;99.90;;;;;;5026760;28;20046;-67
2022/11/07 06:33:11;;;;;;;7.35;4.55;;;8.70;99.90;;;;;;5023627;28;20057;-68
2022/11/07 06:35:40;;;;;;;8.15;4.65;;;8.80;99.90;;;;;;5017341;28;20049;-68
2022/11/07 06:38:09;;;;;;;8.98;4.60;;;8.80;99.90;;;;;;5016788;28;20128;-67
2022/11/07 06:40:38;;;;;;;9.13;5.30;;;8.90;99.90;;;;;;5027179;28;20145;-67
2022/11/07 06:43:07;;;;;;;9.00;5.65;;;8.90;99.90;;;;;;5024708;28;20053;-66
2022/11/07 06:45:36;;;;;;;8.82;5.80;;;8.90;99.90;;;;;;5029351;28;20052;-66
2022/11/07 06:48:04;;;;;;;11.02;6.20;;;8.90;99.90;;;;;;5028252;28;20041;-66
2022/11/07 06:50:32;;;;;;;9.48;5.82;;;9.00;99.90;;;;;;5014553;28;20070;-67
2022/11/07 06:53:06;;;;;;;9.65;6.18;;;9.10;99.90;;;;;;5024538;28;20069;-66
2022/11/07 06:55:34;;;;;;;8.45;5.72;;;9.10;99.90;;;;;;5032565;28;20525;-67
2022/11/07 06:58:02;;;;;;;10.18;5.18;;;9.10;99.90;;;;;;5029567;28;20123;-65
2022/11/07 07:00:33;;;;;;;10.13;5.63;;;9.20;99.90;;;;;;5029171;28;20053;-67
2022/11/07 07:03:01;;;;;;;7.20;4.53;;;9.20;99.90;;;;;;5018224;28;20049;-66
2022/11/07 07:05:28;;;;;;;7.88;4.85;;;9.20;99.90;;;;;;5019393;28;20519;-67
2022/11/07 07:07:55;;;;;;;9.07;5.47;;;9.20;99.90;;;;;;5016368;28;20105;-67
2022/11/07 07:10:24;;;;;;;12.38;7.45;;;9.20;99.90;;;;;;5019530;28;20557;-67
2022/11/07 07:12:53;;;;;;;9.93;5.63;;;9.30;99.90;;;;;;5018910;28;20049;-68
2022/11/07 07:15:20;;;;;;;8.38;4.88;;;9.30;99.90;;;;;;5028244;28;20061;-69
2022/11/07 07:17:48;;;;;;;12.02;5.80;;;9.30;99.90;;;;;;5013530;28;20042;-67
2022/11/07 07:20:15;;;;;;;16.80;8.93;;;9.40;99.90;;;;;;5020552;28;20096;-68
2022/11/07 07:22:46;;;;;;;8.30;5.20;;;9.40;99.90;;;;;;5024731;28;20096;-68
2022/11/07 07:25:23;;;;;;;8.05;5.00;;;9.50;99.90;;;;;;5013998;28;20069;-68
2022/11/07 07:27:50;;;;;;;9.35;5.03;;;9.50;99.90;;;;;;5013883;28;20061;-67
2022/11/07 07:30:18;;;;;;;9.40;5.20;;;9.60;99.90;;;;;;5014931;28;20034;-67
2022/11/07 07:32:45;;;;;;;10.88;5.35;;;9.60;99.90;;;;;;5029160;28;20535;-66
2022/11/07 07:35:12;;;;;;;9.98;5.40;;;9.60;99.90;;;;;;5029461;28;20041;-67
2022/11/07 07:37:40;;;;;;;9.13;5.45;;;9.60;99.90;;;;;;5027658;28;20499;-66
2022/11/07 07:40:08;;;;;;;7.70;4.97;;;9.70;99.90;;;;;;5029587;28;20061;-66
2022/11/07 07:42:41;;;;;;;10.38;5.00;;;9.80;99.90;;;;;;5029378;28;20041;-68
2022/11/07 07:45:10;;;;;;;11.13;5.25;;;9.80;99.90;;;;;;5026220;28;20452;-66
2022/11/07 07:47:38;;;;;;;7.47;5.15;;;9.80;99.90;;;;;;5025524;28;20124;-67
2022/11/07 07:50:08;;;;;;;9.70;5.03;;;9.80;99.90;;;;;;5009813;28;20049;-67
2022/11/07 07:52:36;;;;;;;8.07;5.18;;;9.80;99.90;;;;;;5024543;28;20183;-66
2022/11/07 07:55:06;;;;;;;9.45;5.30;;;9.70;99.90;;;;;;5027875;28;20051;-67
2022/11/07 07:57:40;;;;;;;9.55;4.70;;;9.80;99.90;;;;;;5020845;28;20141;-66
2022/11/07 08:00:09;;;;;;;9.07;4.55;;;9.80;99.90;;;;;;5028041;28;20152;-64
2022/11/07 08:02:42;;;;;;;7.80;4.70;;;9.90;99.90;;;;;;5017036;28;20072;-66
2022/11/07 08:05:12;;;;;;;11.48;5.22;;;9.90;99.90;;;;;;5012366;28;20037;-66
2022/11/07 08:07:50;;;;;;;9.23;5.38;;;10.10;99.90;;;;;;5017878;28;20518;-65
2022/11/07 08:10:18;;;;;;;7.47;4.75;;;10.20;99.90;;;;;;5029961;28;20107;-65
2022/11/07 08:13:06;;;;;;;11.90;6.90;;;10.30;99.90;;;;;;5026117;28;20095;-65
2022/11/07 08:15:33;;;;;;;19.23;12.27;;;10.20;99.90;;;;;;5025943;28;21047;-66
2022/11/07 08:18:01;;;;;;;11.07;5.40;;;10.30;99.90;;;;;;5028092;28;20049;-66
2022/11/07 08:20:29;;;;;;;11.15;5.55;;;10.30;99.90;;;;;;5028415;28;20053;-65
2022/11/07 08:23:05;;;;;;;7.97;4.78;;;10.40;99.90;;;;;;5025498;28;20124;-66
2022/11/07 08:25:40;;;;;;;9.63;5.50;;;10.40;99.90;;;;;;5012506;28;20050;-65
2022/11/07 08:28:08;;;;;;;7.95;4.70;;;10.50;99.90;;;;;;5016245;28;20053;-66
2022/11/07 08:30:35;;;;;;;10.30;5.15;;;10.60;99.90;;;;;;5013493;28;20053;-68
2022/11/07 08:33:03;;;;;;;12.55;5.15;;;10.70;99.90;;;;;;5014988;28;20045;-67
2022/11/07 08:35:30;;;;;;;12.32;4.53;;;10.70;99.90;;;;;;5020932;28;20412;-67
2022/11/07 08:37:58;;;;;;;11.80;6.30;;;10.80;99.90;;;;;;5027741;28;20053;-66
2022/11/07 08:40:26;;;;;;;9.27;5.93;;;10.90;99.90;;;;;;5020830;28;20041;-65
2022/11/07 08:42:59;;;;;;;12.27;5.22;;;11.10;99.90;;;;;;5026230;28;20052;-65
2022/11/07 08:45:26;;;;;;;8.63;4.93;;;11.30;99.90;;;;;;4904923;28;20053;-64
2022/11/07 08:47:58;;;;;;;8.77;5.43;;;11.40;99.90;;;;;;5013253;28;20042;-65
2022/11/07 08:50:26;;;;;;;13.63;5.95;;;11.50;99.90;;;;;;5010687;28;20099;-66
2022/11/07 08:52:53;;;;;;;9.27;4.55;;;11.70;99.90;;;;;;5004552;28;20459;-66
2022/11/07 08:55:28;;;;;;;10.27;4.63;;;11.90;99.90;;;;;;5000402;28;20049;-66
2022/11/07 08:58:06;;;;;;;7.38;4.65;;;12.20;99.90;;;;;;5006882;28;20072;-67
2022/11/07 09:00:35;;;;;;;9.50;5.40;;;12.40;99.90;;;;;;5005639;28;20042;-67
2022/11/07 09:03:07;;;;;;;8.50;5.40;;;12.50;99.90;;;;;;5006308;28;20121;-67
2022/11/07 09:05:57;;;;;;;7.13;4.40;;;12.60;99.90;;;;;;4998937;28;20065;-66
2022/11/07 09:08:24;;;;;;;8.98;4.40;;;12.70;99.90;;;;;;5007347;28;20049;-65
2022/11/07 09:11:01;;;;;;;9.98;4.30;;;12.70;99.90;;;;;;4989133;28;20038;-65
2022/11/07 09:13:30;;;;;;;14.65;7.28;;;12.70;99.90;;;;;;5008948;28;20042;-66
2022/11/07 09:16:00;;;;;;;8.38;5.05;;;12.70;99.90;;;;;;5005119;28;20054;-66
2022/11/07 09:18:28;;;;;;;10.40;5.88;;;12.70;99.90;;;;;;5000504;28;20508;-67
2022/11/07 09:20:57;;;;;;;9.80;5.18;;;12.90;99.90;;;;;;5002096;28;20411;-66
2022/11/07 09:23:25;;;;;;;9.52;4.63;;;13.00;99.90;;;;;;5003811;28;20488;-67
2022/11/07 09:25:52;;;;;;;8.13;4.18;;;13.10;99.90;;;;;;5005140;28;20636;-67
2022/11/07 09:28:19;;;;;;;5.93;3.92;;;13.10;99.90;;;;;;4982942;28;20053;-68
2022/11/07 09:30:55;;;;;;;9.40;4.13;;;13.30;99.90;;;;;;5003361;28;20450;-66
2022/11/07 09:33:23;;;;;;;6.63;3.90;;;13.30;99.90;;;;;;4998059;28;20568;-68
2022/11/07 09:35:51;;;;;;;6.35;3.78;;;13.50;99.90;;;;;;5011037;28;20050;-65
2022/11/07 09:38:18;;;;;;;8.75;3.88;;;13.50;99.90;;;;;;5007961;28;20208;-66
2022/11/07 09:41:02;;;;;;;9.30;3.92;;;13.50;99.90;;;;;;5005440;28;20077;-65
2022/11/07 09:43:55;;;;;;;9.45;4.18;;;13.60;99.90;;;;;;5002479;28;20065;-65
2022/11/07 09:46:25;;;;;;;5.63;2.88;;;13.80;99.90;;;;;;4996432;28;20038;-66
2022/11/07 09:49:13;;;;;;;5.63;2.80;;;13.90;99.90;;;;;;4995919;28;20150;-66
2022/11/07 09:51:53;;;;;;;5.80;2.70;;;13.90;99.90;;;;;;5002654;28;20060;-66
2022/11/07 09:54:25;;;;;;;4.47;2.75;;;14.00;99.90;;;;;;5018420;28;20611;-65
2022/11/07 09:56:55;;;;;;;4.57;2.50;;;14.00;99.90;;;;;;5008453;28;20046;-65
2022/11/07 09:59:40;;;;;;;7.35;2.55;;;14.20;99.90;;;;;;5000716;28;20050;-66
2022/11/07 10:02:17;;;;;;;4.22;2.22;;;14.20;99.90;;;;;;5002795;28;20052;-65
2022/11/07 10:04:47;;;;;;;5.15;2.70;;;14.40;99.90;;;;;;4997163;28;20046;-65
2022/11/07 10:07:25;;;;;;;5.90;2.40;;;14.50;99.90;;;;;;5003134;28;20038;-68
2022/11/07 10:10:01;;;;;;;5.95;2.72;;;14.50;99.90;;;;;;5004167;28;20045;-68
2022/11/07 10:12:28;;;;;;;9.55;2.38;;;14.60;99.90;;;;;;5008780;28;20585;-66
2022/11/07 10:15:17;;;;;;;5.13;2.60;;;14.80;99.90;;;;;;5001522;28;20105;-67
2022/11/07 10:18:08;;;;;;;8.77;2.70;;;15.10;99.90;;;;;;5003575;28;20567;-68
2022/11/07 10:21:05;;;;;;;3.87;2.47;;;15.10;99.90;;;;;;5003701;28;20033;-67
2022/11/07 10:24:12;;;;;;;6.07;2.83;;;15.20;99.90;;;;;;5006023;28;20297;-66
2022/11/07 10:26:43;;;;;;;11.45;3.08;;;15.30;99.90;;;;;;5004499;28;20098;-65
2022/11/07 10:29:23;;;;;;;5.40;3.05;;;15.60;99.90;;;;;;5003520;28;20436;-67
2022/11/07 10:32:19;;;;;;;5.07;2.65;;;15.70;99.90;;;;;;5004487;28;20045;-67
2022/11/07 10:34:55;;;;;;;5.15;2.67;;;16.10;99.90;;;;;;4993429;28;20038;-66
2022/11/07 10:37:23;;;;;;;6.13;2.90;;;16.40;99.90;;;;;;4992594;28;20045;-67
2022/11/07 10:39:51;;;;;;;9.23;3.10;;;16.70;99.90;;;;;;5005198;28;20066;-67
2022/11/07 10:42:30;;;;;;;4.80;2.67;;;16.60;99.90;;;;;;5018084;28;20049;-66
2022/11/07 10:44:58;;;;;;;3.80;2.80;;;17.20;99.90;;;;;;4995609;28;20137;-66
2022/11/07 10:47:26;;;;;;;5.40;2.78;;;18.00;99.90;;;;;;4994303;28;20563;-65
2022/11/07 10:50:15;;;;;;;7.03;3.00;;;18.90;99.90;;;;;;5019031;28;20136;-69
2022/11/07 10:52:51;;;;;;;6.78;3.25;;;18.90;99.90;;;;;;5002542;28;20047;-66
2022/11/07 10:55:19;;;;;;;6.60;3.00;;;18.80;99.90;;;;;;5005319;28;20038;-68
2022/11/07 10:57:52;;;;;;;6.78;3.38;;;19.30;99.90;;;;;;5009428;28;20038;-69
2022/11/07 11:00:28;;;;;;;6.35;3.28;;;18.70;99.90;;;;;;5005728;28;20424;-67
2022/11/07 11:02:56;;;;;;;7.63;3.35;;;18.00;99.90;;;;;;4995794;28;20129;-70
2022/11/07 11:05:23;;;;;;;8.85;3.30;;;17.40;99.90;;;;;;5004056;28;20806;-69
2022/11/07 11:07:51;;;;;;;6.40;3.38;;;17.40;99.90;;;;;;5010426;28;20049;-67
2022/11/07 11:10:20;;;;;;;6.50;3.13;;;17.70;99.90;;;;;;4998629;28;20390;-70
2022/11/07 11:12:48;;;;;;;6.25;3.03;;;18.50;99.90;;;;;;4989278;28;20042;-67
2022/11/07 11:15:19;;;;;;;7.40;3.22;;;19.10;99.90;;;;;;4993333;28;20038;-67
2022/11/07 11:17:58;;;;;;;6.22;3.30;;;19.70;99.90;;;;;;4997801;28;20046;-67
2022/11/07 11:20:29;;;;;;;6.55;3.25;;;20.20;99.90;;;;;;4991109;28;20057;-68
2022/11/07 11:22:59;;;;;;;5.07;3.63;;;19.60;99.90;;;;;;4998080;28;20046;-68
2022/11/07 11:25:27;;;;;;;6.32;3.28;;;18.90;99.90;;;;;;5020255;28;20464;-68
2022/11/07 11:28:13;;;;;;;5.97;3.67;;;18.40;99.90;;;;;;5007079;28;20405;-67
2022/11/07 11:30:41;;;;;;;7.35;3.17;;;17.40;99.90;;;;;;4996799;28;20042;-67
2022/11/07 11:33:16;;;;;;;7.43;3.20;;;16.70;99.90;;;;;;4997130;28;20453;-67
2022/11/07 11:35:52;;;;;;;5.88;3.00;;;17.40;99.90;;;;;;4999560;28;20105;-69
2022/11/07 11:38:36;;;;;;;4.97;3.55;;;18.40;99.90;;;;;;4974932;28;20058;-68
2022/11/07 11:41:13;;;;;;;5.57;3.10;;;19.50;99.90;;;;;;4997196;28;20129;-67
2022/11/07 11:43:50;;;;;;;5.38;3.25;;;19.80;99.90;;;;;;4994388;28;20065;-67
2022/11/07 11:46:36;;;;;;;6.30;3.60;;;18.90;99.90;;;;;;5004126;28;20498;-66
2022/11/07 11:49:12;;;;;;;9.75;3.20;;;19.40;99.90;;;;;;5006306;28;20057;-66
2022/11/07 11:51:47;;;;;;;7.15;3.53;;;19.70;99.90;;;;;;5011101;28;20050;-68
2022/11/07 11:54:15;;;;;;;5.03;3.45;;;20.20;99.90;;;;;;4999074;28;20057;-67
2022/11/07 11:56:59;;;;;;;5.07;3.22;;;19.50;99.90;;;;;;5004146;28;20077;-66
2022/11/07 11:59:59;;;;;;;7.88;3.83;;;19.30;99.90;;;;;;5006767;28;20445;-69
2022/11/07 12:02:29;;;;;;;5.38;3.10;;;19.10;99.90;;;;;;4987535;28;20457;-69
2022/11/07 12:05:33;;;;;;;7.07;3.63;;;18.50;99.90;;;;;;5001526;28;20065;-66
2022/11/07 12:08:19;;;;;;;4.45;3.42;;;18.20;99.90;;;;;;5006529;28;20045;-67
2022/11/07 12:11:24;;;;;;;6.22;3.33;;;17.90;99.90;;;;;;4993957;28;20045;-66
2022/11/07 12:14:03;;;;;;;5.72;3.20;;;17.80;99.90;;;;;;4991470;28;20057;-67
2022/11/07 12:17:12;;;;;;;6.22;3.70;;;17.40;99.90;;;;;;5005058;28;20520;-68
2022/11/07 12:20:02;;;;;;;6.45;3.45;;;17.00;99.90;;;;;;4998678;28;20456;-67
2022/11/07 12:22:58;;;;;;;7.47;3.55;;;17.20;99.90;;;;;;5006638;28;20585;-66
2022/11/07 12:25:36;;;;;;;7.28;3.10;;;18.10;99.90;;;;;;5011142;28;20168;-68
2022/11/07 12:28:22;;;;;;;6.82;3.30;;;19.10;99.90;;;;;;5003587;28;20038;-68
2022/11/07 12:31:01;;;;;;;4.95;3.25;;;19.10;99.90;;;;;;5008794;28;20046;-66
2022/11/07 12:33:47;;;;;;;5.47;3.05;;;19.10;99.90;;;;;;5015578;28;20476;-67
2022/11/07 12:36:38;;;;;;;6.10;3.55;;;18.40;99.90;;;;;;5024051;28;20070;-66
2022/11/07 12:39:22;;;;;;;4.93;3.28;;;17.50;99.90;;;;;;5007227;28;20046;-68
2022/11/07 12:41:57;;;;;;;7.13;3.88;;;16.90;99.90;;;;;;4988352;28;20450;-66
2022/11/07 12:44:33;;;;;;;7.68;3.65;;;16.30;99.90;;;;;;5002183;28;20084;-67
2022/11/07 12:47:29;;;;;;;8.60;3.80;;;15.90;99.90;;;;;;5011939;28;20050;-66
2022/11/07 12:50:04;;;;;;;6.35;3.30;;;15.50;99.90;;;;;;4995691;28;20416;-70
2022/11/07 12:52:53;;;;;;;9.00;3.60;;;15.30;99.90;;;;;;4984634;28;20054;-67
2022/11/07 12:55:27;;;;;;;7.55;3.45;;;15.20;99.90;;;;;;5005214;28;20068;-66
2022/11/07 12:57:55;;;;;;;7.55;3.50;;;15.20;99.90;;;;;;5022639;28;20054;-67
2022/11/07 13:00:25;;;;;;;8.52;3.67;;;15.30;99.90;;;;;;4998732;28;20125;-67
2022/11/07 13:03:08;;;;;;;6.82;3.00;;;15.40;99.90;;;;;;4997419;28;20236;-69
2022/11/07 13:05:54;;;;;;;6.32;3.22;;;15.50;99.90;;;;;;5022277;28;20409;-66
2022/11/07 13:08:27;;;;;;;6.05;2.85;;;15.30;99.90;;;;;;5000365;28;20420;-67
2022/11/07 13:11:19;;;;;;;8.68;3.42;;;15.40;99.90;;;;;;5011676;28;20048;-67
2022/11/07 13:14:17;;;;;;;7.40;2.90;;;15.40;99.90;;;;;;5008282;28;20520;-67
2022/11/07 13:16:51;;;;;;;;;;;15.40;99.90;;;;;;5001854;28;20042;-68
2022/11/07 13:19:32;;;;;;;4.65;2.92;;;15.40;99.90;;;;;;4988462;28;20384;-67
2022/11/07 13:22:05;;;;;;;6.20;3.38;;;15.20;99.90;;;;;;5010696;28;20594;-66
2022/11/07 13:24:48;;;;;;;12.27;2.67;;;15.30;99.90;;;;;;5004383;28;20052;-66
2022/11/07 13:27:30;;;;;;;4.57;2.60;;;15.20;99.90;;;;;;5007946;28;20037;-66